Latest Weather Observations for Ulladulla

IDN60801

Issued at 8:32 pm EST Sunday 16 June 2019 (issued every 10 minutes, with the page automatically refreshed every 10 minutes)

About weather observations | Map of weather stations | Latest weather observations for NSW | Other Formats
Station Details ID: 069138 Name: ULLADULLA AWS Lat: -35.36 Lon: 150.48 Height: 35.7 m
Data from the previous 72 hours. | See also: Recent months at Ulladulla
Date/Time
EST
Temp
°C
App
Temp
°C
Dew
Point
°C
Rel
Hum
%
Delta-T
°C
Wind Press
QNH
hPa
Press
MSL
hPa
Rain since
9am
mm
Dir  Spd
km/h
Gust
km/h
Spd
kts
Gust
kts
16/08:30pm 11.7 9.4 10.3 91 0.7 WSW 13 20 7 11 1021.5 1021.5 5.2
16/08:00pm 11.6 9.6 10.2 91 0.7 WSW 11 19 6 10 1021.2 1021.2 5.0
16/07:30pm 11.5 9.9 10.2 92 0.7 WSW 9 17 5 9 1021.1 1021.1 5.0
16/07:00pm 11.5 10.3 10.4 93 0.6 W 7 13 4 7 1020.9 1020.9 5.0
16/06:30pm 11.5 10.0 10.7 95 0.4 WSW 9 15 5 8 1020.9 1020.9 5.0
16/06:00pm 11.6 9.8 10.8 95 0.4 WSW 11 17 6 9 1020.9 1020.9 5.0
16/05:30pm 11.5 9.7 10.7 95 0.4 SW 11 19 6 10 1020.7 1020.7 5.0
16/05:00pm 11.6 10.2 10.8 95 0.4 WSW 9 15 5 8 1020.9 1020.9 5.0
16/04:30pm 11.9 10.5 10.8 93 0.6 SW 9 13 5 7 1020.8 1020.8 5.0
16/04:00pm 12.4 11.1 11.1 92 0.7 WSW 9 13 5 7 1020.8 1020.8 5.0
16/03:30pm 13.0 12.2 11.6 91 0.7 SSW 7 13 4 7 1020.9 1020.9 4.6
16/03:00pm 13.1 11.5 11.7 91 0.7 SSE 11 19 6 10 1020.8 1020.8 3.0
16/02:30pm 12.6 11.0 10.1 85 1.3 WSW 9 15 5 8 1020.5 1020.5 0.2
16/02:00pm 13.0 11.2 9.6 80 1.7 SW 9 13 5 7 1020.5 1020.5 0.0
16/01:30pm 14.3 12.2 8.3 67 3.0 SW 9 13 5 7 1020.7 1020.7 0.0
16/01:00pm 14.5 12.7 8.0 65 3.2 SW 7 11 4 6 1021.0 1021.0 0.0
16/12:30pm 14.1 11.8 7.4 64 3.3 WSW 9 13 5 7 1021.4 1021.4 0.0
16/12:00pm 14.3 11.6 7.4 63 3.4 SW 11 15 6 8 1021.6 1021.6 0.0
16/11:30am 13.8 11.4 7.1 64 3.3 WSW 9 17 5 9 1022.2 1022.2 0.0
16/11:00am 13.6 11.0 7.6 67 2.9 WSW 11 17 6 9 1022.4 1022.4 0.0
16/10:30am 13.6 10.6 7.6 67 3.0 SW 13 19 7 10 1022.5 1022.5 0.0
16/10:00am 13.3 10.8 8.0 70 2.6 WSW 11 17 6 9 1022.6 1022.6 0.0
16/09:30am 13.4 10.8 7.8 69 2.8 SW 11 19 6 10 1022.6 1022.6 0.0
16/09:00am 13.4 10.9 8.0 70 2.7 SW 11 20 6 11 1022.3 1022.3 0.0
16/08:30am 12.9 10.4 8.0 72 2.4 SW 11 19 6 10 1022.4 1022.4 0.0
16/08:00am 12.9 10.8 8.2 73 2.3 SW 9 20 5 11 1022.1 1022.1 0.0
16/07:30am 11.9 9.7 7.8 76 2.0 WSW 9 13 5 7 1022.1 1022.1 0.0
16/07:00am 12.0 9.4 7.7 75 2.1 SW 11 15 6 8 1021.6 1021.6 0.0
16/06:30am 11.1 8.7 7.0 76 2.0 WSW 9 13 5 7 1021.6 1021.6 0.0
16/06:00am 11.1 8.7 6.8 75 2.0 WSW 9 11 5 6 1021.2 1021.2 0.0
16/05:30am 11.6 9.2 7.1 74 2.2 SW 9 13 5 7 1021.0 1021.0 0.0
16/05:00am 12.4 10.2 7.9 74 2.2 SW 9 13 5 7 1020.7 1020.7 0.0
16/04:30am 11.9 9.6 7.6 75 2.1 SW 9 13 5 7 1021.0 1021.0 0.0
16/04:00am 11.8 9.5 7.3 74 2.2 SW 9 15 5 8 1021.0 1021.0 0.0
16/03:30am 11.8 9.4 7.1 73 2.3 WSW 9 13 5 7 1021.4 1021.4 0.0
16/03:00am 12.3 10.0 7.4 72 2.4 SW 9 13 5 7 1021.6 1021.6 0.0
16/02:30am 12.5 10.2 7.4 71 2.5 SW 9 15 5 8 1021.4 1021.4 0.0
16/02:00am 12.4 10.5 7.5 72 2.4 WSW 7 11 4 6 1021.4 1021.4 0.0
16/01:30am 12.7 10.5 7.8 72 2.4 W 9 13 5 7 1021.6 1021.6 0.0
16/01:00am 12.4 10.5 7.7 73 2.3 WSW 7 13 4 7 1021.4 1021.4 0.0
16/12:30am 12.3 10.5 7.8 74 2.2 WSW 7 11 4 6 1021.5 1021.5 0.0
16/12:00am 12.0 10.1 7.7 75 2.1 WSW 7 11 4 6 1021.7 1021.7 0.0
 
Date/Time
EST
Temp
°C
App
Temp
°C
Dew
Point
°C
Rel
Hum
%
Delta-T
°C
Wind Press
QNH
hPa
Press
MSL
hPa
Rain since
9am
mm
Dir  Spd
km/h
Gust
km/h
Spd
kts
Gust
kts
15/11:30pm 11.8 9.6 7.7 76 2.0 WSW 9 11 5 6 1022.0 1022.0 0.0
15/11:00pm 11.8 9.6 7.7 76 2.0 WSW 9 13 5 7 1022.0 1022.0 0.0
15/10:30pm 11.7 9.5 8.0 78 1.8 W 9 11 5 6 1022.1 1022.1 0.0
15/10:00pm 11.0 9.6 7.3 78 1.8 WSW 4 7 2 4 1021.9 1021.9 0.0
15/09:30pm 11.4 10.1 7.5 77 1.9 WSW 4 6 2 3 1022.1 1022.1 0.0
15/09:00pm 11.6 9.4 7.7 77 1.9 WSW 9 11 5 6 1022.0 1022.0 0.0
15/08:30pm 11.6 9.7 7.7 77 1.9 WSW 7 11 4 6 1022.0 1022.0 0.0
15/08:00pm 11.2 8.8 7.1 76 2.0 WSW 9 11 5 6 1021.9 1021.9 0.0
15/07:30pm 11.5 9.4 6.8 73 2.2 WSW 7 9 4 5 1021.7 1021.7 0.0
15/07:00pm 12.4 11.0 7.1 70 2.5 WSW 4 6 2 3 1021.5 1021.5 0.0
15/06:30pm 13.0 11.1 6.8 66 3.0 SW 6 7 3 4 1021.2 1021.2 0.0
15/06:00pm 14.7 13.4 7.7 63 3.5 S 4 9 2 5 1020.9 1020.9 0.0
15/05:30pm 14.9 13.2 7.7 62 3.6 SSE 6 9 3 5 1020.5 1020.5 0.0
15/05:00pm 15.1 13.0 8.3 64 3.4 SSE 9 13 5 7 1020.2 1020.2 0.0
15/04:30pm 15.2 13.0 7.7 61 3.7 SSE 9 15 5 8 1020.0 1020.0 0.0
15/04:00pm 15.6 13.6 8.6 63 3.6 SSE 9 15 5 8 1019.9 1019.9 0.0
15/03:30pm 16.0 13.8 9.2 64 3.5 SSE 11 19 6 10 1019.9 1019.9 0.0
15/03:00pm 16.1 13.0 8.8 62 3.7 S 15 20 8 11 1019.7 1019.7 0.0
15/02:30pm 16.4 13.0 9.3 63 3.7 S 17 22 9 12 1019.7 1019.7 0.0
15/02:00pm 16.6 13.5 10.2 66 3.4 S 17 22 9 12 1019.6 1019.6 0.0
15/01:30pm 16.9 14.5 10.1 64 3.6 S 13 20 7 11 1019.8 1019.8 0.0
15/01:00pm 16.9 14.3 9.3 61 3.9 S 13 19 7 10 1019.9 1019.9 0.0
15/12:30pm 16.9 14.3 9.3 61 4.0 S 13 19 7 10 1020.1 1020.1 0.0
15/12:00pm 16.8 14.1 8.8 59 4.1 SSW 13 20 7 11 1020.5 1020.5 0.0
15/11:30am 16.6 13.6 7.5 55 4.6 SSW 13 20 7 11 1020.7 1020.7 0.0
15/11:00am 16.6 13.2 5.9 49 5.2 SSW 13 17 7 9 1021.0 1021.0 0.0
15/10:30am 16.2 12.9 4.3 45 5.6 SSW 11 17 6 9 1021.2 1021.2 0.0
15/10:00am 15.3 12.3 6.1 54 4.4 S 11 17 6 9 1021.3 1021.3 0.0
15/09:30am 14.7 12.2 5.0 52 4.6 S 7 15 4 8 1021.2 1021.2 0.0
15/09:00am 15.9 13.1 2.3 40 6.1 W 6 9 3 5 1020.4 1020.4 0.0
15/08:30am 14.9 11.7 2.8 44 5.4 W 9 13 5 7 1020.2 1020.2 0.0
15/08:00am 13.0 9.7 2.3 48 4.7 W 9 13 5 7 1019.9 1019.9 0.0
15/07:30am 11.8 8.8 2.3 52 4.1 W 7 11 4 6 1019.5 1019.5 0.0
15/07:00am 10.9 7.5 1.7 53 3.9 W 9 13 5 7 1019.3 1019.3 0.0
15/06:30am 10.9 7.5 1.7 53 3.9 W 9 13 5 7 1019.1 1019.1 0.0
15/06:00am 11.1 8.0 1.6 52 4.0 W 7 13 4 7 1018.7 1018.7 0.0
15/05:30am 10.8 7.8 1.9 54 3.8 W 7 13 4 7 1018.5 1018.5 0.0
15/05:00am 10.7 7.3 2.0 55 3.7 W 9 13 5 7 1018.2 1018.2 0.0
15/04:30am 10.7 7.3 1.8 54 3.8 W 9 13 5 7 1018.0 1018.0 0.0
15/04:00am 11.2 8.2 1.7 52 4.0 W 7 11 4 6 1018.0 1018.0 0.0
15/03:30am 11.6 8.2 1.8 51 4.2 W 9 13 5 7 1017.9 1017.9 0.0
15/03:00am 11.2 8.2 2.2 54 3.8 W 7 11 4 6 1018.1 1018.1 0.0
15/02:30am 10.9 7.6 2.2 55 3.7 W 9 11 5 6 1018.2 1018.2 0.0
15/02:00am 10.6 7.3 2.2 56 3.6 W 9 11 5 6 1018.3 1018.3 0.0
15/01:30am 10.5 7.5 2.1 56 3.6 WSW 7 11 4 6 1018.5 1018.5 0.0
15/01:00am 10.9 7.9 2.2 55 3.7 W 7 9 4 5 1018.6 1018.6 0.0
15/12:30am 11.3 8.3 2.3 54 3.9 W 7 11 4 6 1018.7 1018.7 0.0
15/12:00am 11.3 8.6 2.6 55 3.8 W 6 9 3 5 1018.9 1018.9 0.0
 
Date/Time
EST
Temp
°C
App
Temp
°C
Dew
Point
°C
Rel
Hum
%
Delta-T
°C
Wind Press
QNH
hPa
Press
MSL
hPa
Rain since
9am
mm
Dir  Spd
km/h
Gust
km/h
Spd
kts
Gust
kts
14/11:30pm 11.8 9.0 3.1 55 3.8 W 7 11 4 6 1019.0 1019.0 0.0
14/11:00pm 11.9 9.1 3.2 55 3.8 W 7 13 4 7 1019.0 1019.0 0.0
14/10:30pm 12.2 9.4 3.4 55 3.9 W 7 13 4 7 1019.1 1019.1 0.0
14/10:00pm 12.6 9.9 3.8 55 3.9 WNW 7 11 4 6 1019.2 1019.2 0.0
14/09:30pm 12.9 10.2 3.8 54 4.1 WNW 7 15 4 8 1019.3 1019.3 0.0
14/09:00pm 13.6 10.2 3.9 52 4.4 WNW 11 15 6 8 1019.2 1019.2 0.0
14/08:30pm 12.6 9.9 2.5 50 4.4 W 6 9 3 5 1019.2 1019.2 0.0
14/08:00pm 12.6 9.7 2.5 50 4.4 WNW 7 9 4 5 1019.0 1019.0 0.0
14/07:30pm 12.2 9.7 3.7 56 3.8 NW 6 7 3 4 1018.8 1018.8 0.0
14/07:00pm 12.1 9.8 4.8 61 3.3 NNW 6 7 3 4 1018.6 1018.6 0.0
14/06:30pm 12.7 11.2 4.9 59 3.6 NW 2 4 1 2 1018.3 1018.3 0.0
14/06:00pm 13.2 12.0 4.6 56 3.9 CALM 0 0 0 0 1018.0 1018.0 0.0
14/05:30pm 13.1 11.8 4.3 55 4.0 CALM 0 0 0 0 1017.9 1017.9 0.0
14/05:00pm 14.2 12.2 4.2 51 4.6 NW 4 6 2 3 1017.7 1017.7 0.0
14/04:30pm 16.3 14.7 4.4 45 5.6 NNW 2 6 1 3 1017.6 1017.6 0.0
14/04:00pm 16.9 15.3 4.3 43 5.9 E 2 6 1 3 1017.4 1017.4 0.0
14/03:30pm 17.3 16.2 5.3 45 5.8 CALM 0 2 0 1 1017.4 1017.4 0.0
14/03:00pm 17.4 15.5 4.7 43 6.0 E 4 6 2 3 1017.4 1017.4 0.0
14/02:30pm 17.5 15.2 4.8 43 6.1 NNE 6 7 3 4 1017.2 1017.2 0.0
14/02:00pm 17.6 15.2 5.2 44 6.0 NNE 7 11 4 6 1017.3 1017.3 0.0
14/01:30pm 17.8 15.3 4.0 40 6.5 NNE 6 9 3 5 1017.5 1017.5 0.0
14/01:00pm 17.4 14.9 3.7 40 6.4 NNE 6 9 3 5 1017.9 1017.9 0.0
14/12:30pm 17.9 15.7 3.4 38 6.8 NNW 4 9 2 5 1018.0 1018.0 0.0
14/12:00pm 17.6 15.1 3.5 39 6.5 NNW 6 9 3 5 1018.4 1018.4 0.0
14/11:30am 17.8 15.5 2.9 37 6.9 W 4 7 2 4 1018.9 1018.9 0.0
14/11:00am 17.6 15.9 1.6 34 7.1 CALM 0 4 0 2 1019.0 1019.0 0.0
14/10:30am 17.4 15.5 2.6 37 6.8 W 2 6 1 3 1019.4 1019.4 0.0
14/10:00am 16.6 13.8 2.2 38 6.5 W 6 9 3 5 1019.6 1019.6 0.0
14/09:30am 15.2 12.8 2.1 41 5.8 NW 4 6 2 3 1019.6 1019.6 0.0
14/09:00am 13.7 11.6 2.0 45 5.1 WNW 2 6 1 3 1019.5 1019.5 0.0
14/08:30am 12.4 9.5 1.4 47 4.7 W 6 7 3 4 1019.3 1019.3 0.0
14/08:00am 11.7 8.7 1.1 48 4.4 W 6 11 3 6 1019.0 1019.0 0.0
14/07:30am 11.4 8.2 0.8 48 4.4 W 7 11 4 6 1018.8 1018.8 0.0
14/07:00am 11.4 8.2 0.5 47 4.5 W 7 13 4 7 1018.6 1018.6 0.0
14/06:30am 11.2 8.0 0.6 48 4.4 W 7 9 4 5 1018.2 1018.2 0.0
14/06:00am 11.1 7.9 0.8 49 4.3 W 7 11 4 6 1017.8 1017.8 0.0
14/05:30am 10.9 7.8 1.2 51 4.0 W 7 11 4 6 1017.6 1017.6 0.0
14/05:00am 10.8 7.7 1.1 51 4.0 W 7 11 4 6 1017.2 1017.2 0.0
14/04:30am 11.3 8.1 1.0 49 4.3 W 7 11 4 6 1017.4 1017.4 0.0
14/04:00am 11.4 8.3 1.4 50 4.2 W 7 11 4 6 1017.4 1017.4 0.0
14/03:30am 11.4 8.3 1.4 50 4.2 W 7 11 4 6 1017.3 1017.3 0.0
14/03:00am 11.9 8.8 1.5 49 4.4 W 7 11 4 6 1017.3 1017.3 0.0
14/02:30am 12.2 9.2 1.8 49 4.5 WNW 7 11 4 6 1017.3 1017.3 0.0
14/02:00am 12.1 9.1 1.7 49 4.4 W 7 11 4 6 1017.3 1017.3 0.0
14/01:30am 12.6 9.6 1.9 48 4.6 W 7 11 4 6 1017.3 1017.3 0.0
14/01:00am 12.9 9.9 2.2 48 4.6 WNW 7 11 4 6 1017.0 1017.0 0.0
14/12:30am 13.1 9.9 2.9 50 4.5 W 9 15 5 8 1016.9 1016.9 0.0
14/12:00am 13.0 9.9 3.4 52 4.3 W 9 17 5 9 1016.7 1016.7 0.0
 
Date/Time
EST
Temp
°C
App
Temp
°C
Dew
Point
°C
Rel
Hum
%
Delta-T
°C
Wind Press
QNH
hPa
Press
MSL
hPa
Rain since
9am
mm
Dir  Spd
km/h
Gust
km/h
Spd
kts
Gust
kts
13/11:30pm 13.4 10.7 3.8 52 4.3 WNW 7 13 4 7 1017.0 1017.0 0.0
13/11:00pm 13.5 10.4 3.8 52 4.4 W 9 17 5 9 1017.0 1017.0 0.0
13/10:30pm 13.9 10.1 3.7 50 4.6 WSW 13 22 7 12 1017.0 1017.0 0.0
13/10:00pm 14.4 10.2 3.8 49 4.8 W 15 26 8 14 1016.8 1016.8 0.0
13/09:30pm 14.4 11.0 3.8 49 4.8 W 11 22 6 12 1016.7 1016.7 0.0
13/09:00pm 14.4 11.5 4.4 51 4.6 W 9 22 5 12 1016.7 1016.7 0.0

Other formats

Comma delimited format used in spreadsheet applications
http://www.bom.gov.au/fwo/IDN60801/IDN60801.94938.axf

JavaScript Object Notation format (JSON) in row-major order
http://www.bom.gov.au/fwo/IDN60801/IDN60801.94938.json

Data quality

Most of these data are generated automatically and are frequently updated. Quality checks on data are not normally performed. It is possible for incorrect values to appear. Refer to information at About Latest Weather Observations and please check the disclaimer before using these data.